createdAt,value
2019-01-20T00:00:43.734Z,100.00
2019-01-20T00:03:13.171Z,100.00
2019-01-20T00:05:43.160Z,100.00
2019-01-20T00:08:12.910Z,100.00
2019-01-20T00:10:42.229Z,100.00
2019-01-20T00:13:13.907Z,100.00
2019-01-20T00:15:45.274Z,100.00
2019-01-20T00:18:19.485Z,100.00
2019-01-20T00:20:49.299Z,100.00
2019-01-20T00:23:19.433Z,100.00
2019-01-20T00:25:50.959Z,100.00
2019-01-20T00:28:21.286Z,100.00
2019-01-20T00:30:50.748Z,100.00
2019-01-20T00:33:24.121Z,100.00
2019-01-20T00:35:54.332Z,100.00
2019-01-20T00:38:23.486Z,100.00
2019-01-20T00:40:55.155Z,100.00
2019-01-20T00:43:28.826Z,100.00
2019-01-20T00:46:04.079Z,100.00
2019-01-20T00:48:33.798Z,100.00
2019-01-20T00:51:05.581Z,100.00
2019-01-20T00:53:35.113Z,100.00
2019-01-20T00:56:04.830Z,100.00
2019-01-20T00:58:39.913Z,100.00
2019-01-20T01:01:09.539Z,100.00
2019-01-20T01:03:40.154Z,100.00
2019-01-20T01:06:13.730Z,100.00
2019-01-20T01:08:49.872Z,100.00
2019-01-20T01:11:20.488Z,100.00
2019-01-20T01:13:51.673Z,100.00
2019-01-20T01:16:20.917Z,100.00
2019-01-20T01:18:54.232Z,100.00
2019-01-20T01:21:27.084Z,100.00
2019-01-20T01:23:56.600Z,100.00
2019-01-20T01:26:26.359Z,100.00
2019-01-20T01:28:57.346Z,100.00
2019-01-20T01:31:28.538Z,100.00
2019-01-20T01:33:57.989Z,100.00
2019-01-20T01:36:28.031Z,100.00
2019-01-20T01:38:58.038Z,100.00
2019-01-20T01:41:29.555Z,100.00
2019-01-20T01:44:00.727Z,100.00
2019-01-20T01:46:31.352Z,100.00
2019-01-20T01:49:02.714Z,100.00
2019-01-20T01:51:35.500Z,100.00
2019-01-20T01:54:05.548Z,100.00
2019-01-20T01:56:36.608Z,100.00
2019-01-20T01:59:11.410Z,100.00
2019-01-20T02:01:43.462Z,100.00
2019-01-20T02:04:18.230Z,100.00
2019-01-20T02:06:49.594Z,100.00
2019-01-20T02:09:19.632Z,100.00
2019-01-20T02:11:50.902Z,100.00
2019-01-20T02:14:24.862Z,100.00
2019-01-20T02:16:54.874Z,100.00
2019-01-20T02:19:25.144Z,100.00
2019-01-20T02:21:55.690Z,100.00
2019-01-20T02:24:26.158Z,100.00
2019-01-20T02:27:00.196Z,100.00
2019-01-20T02:29:34.178Z,100.00
2019-01-20T02:32:04.314Z,100.00
2019-01-20T02:34:40.527Z,100.00
2019-01-20T02:37:10.695Z,100.00
2019-01-20T02:39:41.291Z,100.00
2019-01-20T02:42:12.538Z,100.00
2019-01-20T02:44:43.701Z,100.00
2019-01-20T02:47:18.335Z,100.00
2019-01-20T02:49:48.448Z,100.00
2019-01-20T02:52:18.595Z,100.00
2019-01-20T02:54:49.348Z,100.00
2019-01-20T02:57:20.973Z,100.00
2019-01-20T02:59:51.003Z,100.00
2019-01-20T03:02:28.586Z,100.00
2019-01-20T03:05:02.223Z,100.00
2019-01-20T03:07:32.777Z,100.00
2019-01-20T03:10:03.050Z,100.00
2019-01-20T03:12:32.718Z,100.00
2019-01-20T03:15:04.598Z,100.00
2019-01-20T03:17:34.132Z,100.00
2019-01-20T03:20:03.584Z,100.00
2019-01-20T03:22:35.574Z,100.00
2019-01-20T03:25:06.087Z,100.00
2019-01-20T03:27:35.249Z,100.00
2019-01-20T03:30:08.413Z,100.00
2019-01-20T03:32:41.105Z,100.00
2019-01-20T03:35:11.644Z,100.00
2019-01-20T03:37:43.571Z,100.00
2019-01-20T03:40:16.387Z,100.00
2019-01-20T03:42:51.239Z,100.00
2019-01-20T03:45:21.076Z,100.00
2019-01-20T03:47:51.312Z,100.00
2019-01-20T03:50:22.623Z,100.00
2019-01-20T03:52:52.183Z,100.00
2019-01-20T03:55:23.241Z,100.00
2019-01-20T03:57:52.500Z,100.00
2019-01-20T04:00:27.767Z,100.00
2019-01-20T04:03:04.540Z,100.00
2019-01-20T04:05:33.783Z,100.00
2019-01-20T04:08:03.755Z,100.00
2019-01-20T04:10:35.538Z,100.00
2019-01-20T04:13:06.453Z,100.00
2019-01-20T04:15:41.033Z,100.00
2019-01-20T04:18:10.533Z,100.00
2019-01-20T04:20:40.809Z,100.00
2019-01-20T04:23:10.831Z,100.00
2019-01-20T04:25:40.410Z,100.00
2019-01-20T04:28:09.746Z,100.00
2019-01-20T04:30:43.304Z,100.00
2019-01-20T04:33:13.335Z,100.00
2019-01-20T04:36:07.123Z,100.00
2019-01-20T04:38:39.739Z,100.00
2019-01-20T04:41:09.863Z,100.00
2019-01-20T04:43:39.346Z,100.00
2019-01-20T04:46:08.833Z,100.00
2019-01-20T04:48:40.489Z,100.00
2019-01-20T04:51:09.921Z,100.00
2019-01-20T04:53:41.875Z,100.00
2019-01-20T04:56:11.337Z,100.00
2019-01-20T04:58:42.992Z,100.00
2019-01-20T05:01:15.562Z,100.00
2019-01-20T05:03:45.462Z,100.00
2019-01-20T05:06:15.993Z,100.00
2019-01-20T05:08:46.018Z,100.00
2019-01-20T05:11:15.791Z,100.00
2019-01-20T05:13:45.815Z,100.00
2019-01-20T05:16:15.520Z,100.00
2019-01-20T05:18:45.525Z,100.00
2019-01-20T05:21:15.278Z,100.00
2019-01-20T05:23:45.047Z,100.00
2019-01-20T05:26:14.228Z,100.00
2019-01-20T05:28:44.016Z,100.00
2019-01-20T05:31:15.301Z,100.00
2019-01-20T05:33:46.045Z,100.00
2019-01-20T05:36:18.410Z,100.00
2019-01-20T05:38:48.170Z,100.00
2019-01-20T05:41:18.063Z,100.00
2019-01-20T05:43:48.076Z,100.00
2019-01-20T05:46:17.814Z,100.00
2019-01-20T05:48:48.472Z,100.00
2019-01-20T05:51:19.456Z,100.00
2019-01-20T05:53:52.658Z,100.00
2019-01-20T05:56:25.527Z,100.00
2019-01-20T05:58:57.552Z,100.00
2019-01-20T06:01:27.389Z,100.00
2019-01-20T06:03:56.607Z,100.00
2019-01-20T06:06:27.875Z,100.00
2019-01-20T06:08:58.979Z,100.00
2019-01-20T06:11:28.412Z,100.00
2019-01-20T06:14:01.962Z,100.00
2019-01-20T06:16:31.661Z,100.00
2019-01-20T06:19:01.396Z,100.00
2019-01-20T06:21:31.174Z,100.00
2019-01-20T06:24:07.648Z,100.00
2019-01-20T06:26:40.767Z,100.00
2019-01-20T06:29:14.290Z,100.00
2019-01-20T06:31:46.450Z,100.00
2019-01-20T06:34:18.071Z,100.00
2019-01-20T06:36:48.122Z,100.00
2019-01-20T06:39:20.702Z,100.00
2019-01-20T06:41:51.034Z,100.00
2019-01-20T06:44:21.044Z,100.00
2019-01-20T06:46:57.922Z,100.00
2019-01-20T06:49:29.502Z,100.00
2019-01-20T06:52:01.563Z,100.00
2019-01-20T06:54:31.252Z,100.00
2019-01-20T06:57:01.184Z,100.00
2019-01-20T06:59:30.863Z,100.00
2019-01-20T07:02:01.254Z,100.00
2019-01-20T07:04:35.237Z,100.00
2019-01-20T07:07:10.967Z,100.00
2019-01-20T07:09:42.452Z,100.00
2019-01-20T07:12:12.763Z,100.00
2019-01-20T07:14:41.970Z,100.00
2019-01-20T07:17:11.607Z,100.00
2019-01-20T07:19:41.250Z,100.00
2019-01-20T07:22:13.828Z,100.00
2019-01-20T07:24:47.750Z,100.00
2019-01-20T07:27:18.973Z,100.00
2019-01-20T07:29:49.116Z,100.00
2019-01-20T07:32:20.870Z,100.00
2019-01-20T07:34:50.360Z,100.00
2019-01-20T07:37:23.032Z,100.00
2019-01-20T07:39:52.809Z,100.00
2019-01-20T07:42:23.187Z,100.00
2019-01-20T07:44:53.690Z,100.00
2019-01-20T07:47:23.718Z,100.00
2019-01-20T07:49:53.000Z,100.00
2019-01-20T07:52:22.521Z,100.00
2019-01-20T07:54:52.027Z,100.00
2019-01-20T07:57:23.099Z,100.00
2019-01-20T07:59:52.730Z,100.00
2019-01-20T08:02:22.399Z,100.00
2019-01-20T08:04:52.919Z,100.00
2019-01-20T08:07:23.460Z,100.00
2019-01-20T08:09:53.248Z,100.00
2019-01-20T08:12:23.860Z,100.00
2019-01-20T08:14:53.494Z,100.00
2019-01-20T08:17:24.696Z,100.00
2019-01-20T08:19:55.256Z,100.00
2019-01-20T08:22:26.321Z,100.00
2019-01-20T08:24:55.900Z,100.00
2019-01-20T08:27:27.038Z,100.00
2019-01-20T08:29:56.235Z,100.00
2019-01-20T08:32:25.506Z,100.00
2019-01-20T08:34:59.188Z,100.00
2019-01-20T08:37:34.234Z,100.00
2019-01-20T08:40:05.723Z,100.00
2019-01-20T08:42:35.580Z,100.00
2019-01-20T08:45:09.866Z,100.00
2019-01-20T08:47:48.103Z,100.00
2019-01-20T08:50:18.736Z,100.00
2019-01-20T08:52:49.745Z,100.00
2019-01-20T08:55:19.347Z,100.00
2019-01-20T08:57:59.135Z,100.00
2019-01-20T09:00:28.435Z,100.00
2019-01-20T09:02:57.892Z,100.00
2019-01-20T09:05:27.543Z,100.00
2019-01-20T09:07:57.586Z,100.00
2019-01-20T09:10:28.410Z,100.00
2019-01-20T09:13:03.675Z,100.00
2019-01-20T09:15:32.850Z,100.00
2019-01-20T09:18:02.075Z,100.00
2019-01-20T09:20:32.647Z,100.00
2019-01-20T09:23:05.137Z,100.00
2019-01-20T09:25:34.713Z,100.00
2019-01-20T09:28:04.460Z,100.00
2019-01-20T09:30:34.001Z,100.00
2019-01-20T09:33:03.229Z,100.00
2019-01-20T09:35:32.840Z,100.00
2019-01-20T09:38:02.953Z,100.00
2019-01-20T09:40:32.167Z,100.00
2019-01-20T09:43:02.597Z,100.00
2019-01-20T09:45:32.744Z,100.00
2019-01-20T09:48:02.011Z,100.00
2019-01-20T09:50:31.550Z,100.00
2019-01-20T09:53:03.251Z,100.00
2019-01-20T09:55:32.761Z,100.00
2019-01-20T09:58:03.759Z,100.00
2019-01-20T10:00:36.556Z,100.00
2019-01-20T10:03:16.203Z,100.00
2019-01-20T10:05:42.366Z,100.00
2019-01-20T10:08:11.609Z,100.00
2019-01-20T10:10:44.622Z,100.00
2019-01-20T10:13:14.322Z,100.00
2019-01-20T10:15:44.165Z,100.00
2019-01-20T10:18:13.670Z,100.00
2019-01-20T10:20:44.582Z,100.00
2019-01-20T10:23:17.011Z,100.00
2019-01-20T10:25:46.725Z,100.00
2019-01-20T10:28:18.869Z,100.00
2019-01-20T10:30:50.139Z,100.00
2019-01-20T10:33:19.682Z,100.00
2019-01-20T10:36:08.136Z,100.00
2019-01-20T10:38:38.056Z,100.00
2019-01-20T10:41:13.002Z,100.00
2019-01-20T10:43:43.038Z,100.00
2019-01-20T10:46:13.197Z,100.00
2019-01-20T10:48:46.237Z,100.00
2019-01-20T10:51:20.407Z,100.00
2019-01-20T10:53:53.126Z,100.00
2019-01-20T10:56:23.922Z,100.00
2019-01-20T10:59:16.501Z,100.00
2019-01-20T11:01:46.612Z,100.00
2019-01-20T11:04:15.842Z,100.00
2019-01-20T11:06:48.715Z,100.00
2019-01-20T11:09:17.941Z,100.00
2019-01-20T11:11:47.968Z,100.00
2019-01-20T11:14:17.163Z,100.00
2019-01-20T11:16:46.410Z,100.00
2019-01-20T11:19:16.377Z,100.00
2019-01-20T11:21:45.957Z,100.00
2019-01-20T11:24:17.153Z,100.00
2019-01-20T11:26:46.434Z,100.00
2019-01-20T11:29:16.518Z,100.00
2019-01-20T11:31:48.468Z,100.00
2019-01-20T11:34:21.081Z,100.00
2019-01-20T11:36:53.761Z,100.00
2019-01-20T11:39:24.157Z,100.00
2019-01-20T11:41:54.179Z,100.00
2019-01-20T11:44:40.736Z,100.00
2019-01-20T11:47:18.714Z,100.00
2019-01-20T11:49:51.680Z,100.00
2019-01-20T11:52:24.748Z,100.00
2019-01-20T11:54:54.224Z,100.00
2019-01-20T11:57:27.162Z,100.00
2019-01-20T12:00:01.399Z,100.00
2019-01-20T12:02:33.188Z,100.00
2019-01-20T12:05:02.771Z,100.00
2019-01-20T12:07:32.397Z,100.00
2019-01-20T12:10:08.591Z,100.00
2019-01-20T12:12:41.942Z,100.00
2019-01-20T12:15:14.954Z,100.00
2019-01-20T12:17:44.843Z,100.00
2019-01-20T12:20:14.506Z,100.00
2019-01-20T12:22:44.408Z,100.00
2019-01-20T12:25:15.096Z,100.00
2019-01-20T12:27:44.653Z,100.00
2019-01-20T12:30:20.389Z,100.00
2019-01-20T12:32:52.084Z,100.00
2019-01-20T12:35:21.295Z,97.19
2019-01-20T12:37:51.182Z,95.48
2019-01-20T12:40:29.588Z,93.13
2019-01-20T12:43:21.703Z,91.94
2019-01-20T12:45:51.450Z,87.82
2019-01-20T12:48:21.363Z,84.96
2019-01-20T12:50:51.272Z,85.78
2019-01-20T12:53:26.569Z,86.68
2019-01-20T12:55:57.460Z,84.36
2019-01-20T12:58:28.437Z,84.98
2019-01-20T13:00:58.779Z,82.37
2019-01-20T13:03:33.148Z,81.99
2019-01-20T13:06:02.387Z,80.51
2019-01-20T13:08:31.652Z,78.71
2019-01-20T13:11:00.894Z,79.05
2019-01-20T13:13:30.445Z,77.26
2019-01-20T13:15:59.928Z,77.73
2019-01-20T13:18:29.214Z,76.11
2019-01-20T13:20:58.459Z,75.48
2019-01-20T13:23:29.629Z,71.46
2019-01-20T13:25:58.981Z,72.34
2019-01-20T13:28:29.139Z,72.58
2019-01-20T13:30:58.328Z,71.74
2019-01-20T13:33:29.357Z,69.72
2019-01-20T13:35:58.783Z,68.85
2019-01-20T13:38:29.904Z,69.38
2019-01-20T13:41:05.546Z,68.34
2019-01-20T13:43:35.219Z,69.02
2019-01-20T13:46:05.104Z,67.32
2019-01-20T13:48:34.356Z,65.32
2019-01-20T13:51:04.092Z,64.18
2019-01-20T13:53:38.392Z,62.93
2019-01-20T13:56:11.539Z,61.70
2019-01-20T13:58:41.219Z,64.35
2019-01-20T14:01:10.617Z,62.47
2019-01-20T14:03:40.176Z,58.77
2019-01-20T14:06:10.289Z,59.26
2019-01-20T14:08:44.248Z,59.01
2019-01-20T14:11:13.623Z,60.10
2019-01-20T14:13:42.940Z,58.07
2019-01-20T14:16:13.341Z,56.37
2019-01-20T14:18:45.412Z,56.25
2019-01-20T14:21:13.952Z,56.50
2019-01-20T14:23:43.530Z,58.67
2019-01-20T14:26:15.197Z,53.98
2019-01-20T14:28:44.415Z,53.65
2019-01-20T14:31:16.553Z,53.86
2019-01-20T14:33:46.341Z,53.63
2019-01-20T14:36:15.559Z,52.95
2019-01-20T14:38:46.233Z,54.38
2019-01-20T14:41:15.671Z,51.94
2019-01-20T14:43:44.912Z,48.94
2019-01-20T14:46:14.451Z,51.60
2019-01-20T14:48:44.161Z,51.97
2019-01-20T14:51:14.756Z,52.43
2019-01-20T14:53:44.552Z,50.82
2019-01-20T14:56:14.107Z,50.97
2019-01-20T14:58:44.140Z,52.29
2019-01-20T15:01:16.338Z,51.65
2019-01-20T15:03:46.140Z,55.06
2019-01-20T15:06:18.111Z,55.39
2019-01-20T15:08:47.638Z,56.59
2019-01-20T15:11:17.128Z,55.69
2019-01-20T15:13:46.357Z,57.21
2019-01-20T15:16:15.932Z,58.53
2019-01-20T15:18:45.440Z,59.50
2019-01-20T15:21:14.988Z,60.76
2019-01-20T15:23:46.311Z,60.47
2019-01-20T15:26:16.122Z,63.03
2019-01-20T15:28:46.238Z,63.88
2019-01-20T15:31:17.273Z,67.18
2019-01-20T15:33:47.433Z,68.32
2019-01-20T15:36:20.433Z,71.36
2019-01-20T15:38:50.019Z,75.51
2019-01-20T15:41:23.045Z,81.70
2019-01-20T15:43:53.107Z,84.77
2019-01-20T15:46:26.371Z,87.43
2019-01-20T15:48:55.601Z,91.59
2019-01-20T15:51:26.304Z,93.02
2019-01-20T15:53:56.167Z,95.57
2019-01-20T15:56:27.069Z,97.93
2019-01-20T15:58:56.885Z,100.00
2019-01-20T16:01:28.265Z,100.00
2019-01-20T16:03:58.801Z,100.00
2019-01-20T16:06:28.767Z,100.00
2019-01-20T16:08:57.955Z,100.00
2019-01-20T16:11:31.256Z,100.00
2019-01-20T16:14:00.408Z,100.00
2019-01-20T16:16:35.243Z,100.00
2019-01-20T16:19:08.658Z,100.00
2019-01-20T16:21:38.217Z,100.00
2019-01-20T16:24:09.903Z,100.00
2019-01-20T16:26:43.879Z,100.00
2019-01-20T16:29:18.165Z,100.00
2019-01-20T16:31:48.475Z,100.00
2019-01-20T16:34:19.233Z,100.00
2019-01-20T16:36:48.967Z,100.00
2019-01-20T16:39:18.712Z,100.00
2019-01-20T16:41:49.521Z,100.00
2019-01-20T16:44:18.849Z,100.00
2019-01-20T16:46:48.264Z,100.00
2019-01-20T16:49:18.388Z,100.00
2019-01-20T16:51:47.918Z,100.00
2019-01-20T16:54:17.124Z,100.00
2019-01-20T16:56:47.202Z,100.00
2019-01-20T16:59:17.395Z,100.00
2019-01-20T17:01:48.891Z,100.00
2019-01-20T17:04:18.263Z,100.00
2019-01-20T17:06:48.137Z,100.00
2019-01-20T17:09:18.796Z,100.00
2019-01-20T17:11:48.112Z,100.00
2019-01-20T17:14:17.615Z,100.00
2019-01-20T17:16:48.589Z,100.00
2019-01-20T17:19:18.399Z,100.00
2019-01-20T17:21:48.727Z,100.00
2019-01-20T17:24:19.257Z,100.00
2019-01-20T17:26:48.525Z,100.00
2019-01-20T17:29:18.181Z,100.00
2019-01-20T17:31:47.410Z,100.00
2019-01-20T17:34:16.912Z,100.00
2019-01-20T17:36:46.638Z,100.00
2019-01-20T17:39:16.934Z,100.00
2019-01-20T17:41:46.460Z,100.00
2019-01-20T17:44:16.515Z,100.00
2019-01-20T17:46:45.848Z,100.00
2019-01-20T17:49:17.063Z,100.00
2019-01-20T17:51:46.443Z,100.00
2019-01-20T17:54:15.802Z,100.00
2019-01-20T17:56:45.139Z,100.00
2019-01-20T17:59:14.631Z,100.00
2019-01-20T18:01:47.776Z,100.00
2019-01-20T18:04:17.977Z,100.00
2019-01-20T18:06:47.813Z,100.00
2019-01-20T18:09:17.726Z,100.00
2019-01-20T18:11:53.027Z,100.00
2019-01-20T18:14:22.302Z,100.00
2019-01-20T18:16:51.821Z,100.00
2019-01-20T18:19:21.293Z,100.00
2019-01-20T18:21:52.005Z,100.00
2019-01-20T18:24:23.135Z,100.00
2019-01-20T18:26:55.516Z,100.00
2019-01-20T18:29:24.739Z,100.00
2019-01-20T18:31:56.232Z,100.00
2019-01-20T18:34:25.489Z,100.00
2019-01-20T18:36:56.823Z,100.00
2019-01-20T18:39:26.815Z,100.00
2019-01-20T18:41:56.301Z,100.00
2019-01-20T18:44:25.872Z,100.00
2019-01-20T18:46:56.966Z,100.00
2019-01-20T18:49:29.369Z,100.00
2019-01-20T18:51:58.614Z,100.00
2019-01-20T18:54:28.163Z,100.00
2019-01-20T18:57:01.635Z,100.00
2019-01-20T18:59:31.646Z,100.00
2019-01-20T19:02:01.301Z,100.00
2019-01-20T19:04:31.905Z,100.00
2019-01-20T19:07:04.294Z,100.00
2019-01-20T19:09:33.961Z,100.00
2019-01-20T19:12:04.560Z,100.00
2019-01-20T19:14:35.316Z,100.00
2019-01-20T19:17:04.550Z,100.00
2019-01-20T19:19:34.079Z,100.00
2019-01-20T19:22:03.955Z,100.00
2019-01-20T19:24:33.184Z,100.00
2019-01-20T19:27:03.567Z,100.00
2019-01-20T19:29:34.246Z,100.00
2019-01-20T19:32:03.847Z,100.00
2019-01-20T19:34:33.111Z,100.00
2019-01-20T19:37:06.729Z,100.00
2019-01-20T19:39:36.926Z,100.00
2019-01-20T19:42:06.419Z,100.00
2019-01-20T19:44:35.651Z,100.00
2019-01-20T19:47:05.300Z,100.00
2019-01-20T19:49:35.434Z,100.00
2019-01-20T19:52:05.090Z,100.00
2019-01-20T19:54:35.627Z,100.00
2019-01-20T19:57:05.521Z,100.00
2019-01-20T19:59:37.884Z,100.00
2019-01-20T20:02:10.273Z,100.00
2019-01-20T20:04:41.815Z,100.00
2019-01-20T20:07:15.405Z,100.00
2019-01-20T20:09:45.757Z,100.00
2019-01-20T20:12:16.149Z,100.00
2019-01-20T20:14:46.596Z,100.00
2019-01-20T20:17:19.336Z,100.00
2019-01-20T20:20:05.736Z,100.00
2019-01-20T20:22:35.647Z,100.00
2019-01-20T20:25:06.394Z,100.00
2019-01-20T20:27:37.997Z,100.00
2019-01-20T20:30:11.801Z,100.00
2019-01-20T20:32:42.628Z,100.00
2019-01-20T20:35:11.839Z,100.00
2019-01-20T20:37:45.969Z,100.00
2019-01-20T20:40:17.541Z,100.00
2019-01-20T20:42:47.188Z,100.00
2019-01-20T20:45:22.268Z,100.00
2019-01-20T20:47:51.984Z,100.00
2019-01-20T20:50:22.806Z,100.00
2019-01-20T20:52:53.291Z,100.00
2019-01-20T20:55:24.908Z,100.00
2019-01-20T20:57:54.358Z,100.00
2019-01-20T21:00:47.821Z,100.00
2019-01-20T21:03:25.426Z,100.00
2019-01-20T21:05:56.621Z,100.00
2019-01-20T21:08:30.876Z,100.00
2019-01-20T21:11:02.607Z,100.00
2019-01-20T21:13:33.019Z,100.00
2019-01-20T21:16:05.338Z,100.00
2019-01-20T21:18:38.387Z,100.00
2019-01-20T21:21:08.498Z,100.00
2019-01-20T21:23:39.472Z,100.00
2019-01-20T21:26:10.815Z,100.00
2019-01-20T21:28:40.648Z,100.00
2019-01-20T21:31:10.155Z,100.00
2019-01-20T21:33:40.795Z,100.00
2019-01-20T21:36:10.623Z,100.00
2019-01-20T21:38:43.045Z,100.00
2019-01-20T21:41:14.039Z,100.00
2019-01-20T21:43:43.925Z,100.00
2019-01-20T21:46:18.744Z,100.00
2019-01-20T21:48:48.313Z,100.00
2019-01-20T21:51:19.358Z,100.00
2019-01-20T21:53:57.105Z,100.00
2019-01-20T21:56:29.726Z,100.00
2019-01-20T21:59:03.483Z,100.00
2019-01-20T22:01:33.212Z,100.00
2019-01-20T22:04:03.331Z,100.00
2019-01-20T22:06:37.958Z,100.00
2019-01-20T22:09:10.197Z,100.00
2019-01-20T22:11:41.463Z,100.00
2019-01-20T22:14:17.623Z,100.00
2019-01-20T22:16:52.790Z,100.00
2019-01-20T22:19:21.194Z,100.00
2019-01-20T22:21:51.003Z,100.00
2019-01-20T22:24:24.769Z,100.00
2019-01-20T22:26:58.922Z,100.00
2019-01-20T22:29:28.530Z,100.00
2019-01-20T22:32:05.182Z,100.00
2019-01-20T22:34:40.726Z,100.00
2019-01-20T22:37:11.281Z,100.00
2019-01-20T22:39:44.164Z,100.00
2019-01-20T22:42:15.974Z,100.00
2019-01-20T22:44:46.509Z,100.00
2019-01-20T22:47:16.631Z,100.00
2019-01-20T22:49:50.914Z,100.00
2019-01-20T22:52:20.410Z,100.00
2019-01-20T22:54:49.979Z,100.00
2019-01-20T22:57:20.061Z,100.00
2019-01-20T22:59:53.303Z,100.00
2019-01-20T23:02:23.548Z,100.00
2019-01-20T23:04:52.918Z,100.00
2019-01-20T23:07:22.710Z,100.00
2019-01-20T23:09:52.816Z,100.00
2019-01-20T23:12:22.602Z,100.00
2019-01-20T23:14:52.105Z,100.00
2019-01-20T23:17:23.523Z,100.00
2019-01-20T23:19:54.343Z,100.00
2019-01-20T23:22:23.557Z,100.00
2019-01-20T23:24:53.617Z,100.00
2019-01-20T23:27:29.165Z,100.00
2019-01-20T23:29:59.995Z,100.00
2019-01-20T23:32:30.447Z,100.00
2019-01-20T23:35:01.080Z,100.00
2019-01-20T23:37:33.993Z,100.00
2019-01-20T23:40:05.028Z,100.00
2019-01-20T23:42:40.187Z,100.00
2019-01-20T23:45:10.413Z,100.00
2019-01-20T23:47:42.054Z,100.00
2019-01-20T23:50:11.839Z,100.00
2019-01-20T23:52:46.405Z,100.00
2019-01-20T23:55:15.952Z,100.00
2019-01-20T23:57:45.583Z,100.00
